sensor_id;sensor_type;location;lat;lon;timestamp;P1;durP1;ratioP1;P2;durP2;ratioP2
14933;SDS011;7560;51.364;12.384;2023-01-23T00:02:12;22.17;;;10.43;;
14933;SDS011;7560;51.364;12.384;2023-01-23T00:07:15;20.73;;;10.23;;
14933;SDS011;7560;51.364;12.384;2023-01-23T00:12:17;23.70;;;10.75;;
14933;SDS011;7560;51.364;12.384;2023-01-23T00:17:19;21.15;;;10.43;;
14933;SDS011;7560;51.364;12.384;2023-01-23T00:22:21;18.95;;;10.00;;
14933;SDS011;7560;51.364;12.384;2023-01-23T00:27:23;21.90;;;10.40;;
14933;SDS011;7560;51.364;12.384;2023-01-23T00:32:26;22.88;;;10.68;;
14933;SDS011;7560;51.364;12.384;2023-01-23T00:37:28;21.42;;;10.80;;
14933;SDS011;7560;51.364;12.384;2023-01-23T00:42:30;22.42;;;10.95;;
14933;SDS011;7560;51.364;12.384;2023-01-23T00:47:34;24.05;;;11.35;;
14933;SDS011;7560;51.364;12.384;2023-01-23T00:52:36;21.45;;;10.60;;
14933;SDS011;7560;51.364;12.384;2023-01-23T00:57:39;22.65;;;10.68;;
14933;SDS011;7560;51.364;12.384;2023-01-23T01:02:41;23.65;;;10.98;;
14933;SDS011;7560;51.364;12.384;2023-01-23T01:07:43;21.88;;;10.23;;
14933;SDS011;7560;51.364;12.384;2023-01-23T01:12:46;23.15;;;11.43;;
14933;SDS011;7560;51.364;12.384;2023-01-23T01:17:48;22.23;;;11.20;;
14933;SDS011;7560;51.364;12.384;2023-01-23T01:22:49;22.90;;;10.38;;
14933;SDS011;7560;51.364;12.384;2023-01-23T01:27:52;24.05;;;10.68;;
14933;SDS011;7560;51.364;12.384;2023-01-23T01:32:54;25.33;;;11.50;;
14933;SDS011;7560;51.364;12.384;2023-01-23T01:37:57;24.45;;;10.95;;
14933;SDS011;7560;51.364;12.384;2023-01-23T01:43:00;24.65;;;11.05;;
14933;SDS011;7560;51.364;12.384;2023-01-23T01:48:07;27.67;;;12.40;;
14933;SDS011;7560;51.364;12.384;2023-01-23T01:53:10;20.88;;;10.68;;
14933;SDS011;7560;51.364;12.384;2023-01-23T01:58:12;24.80;;;11.68;;
14933;SDS011;7560;51.364;12.384;2023-01-23T02:03:14;24.98;;;11.90;;
14933;SDS011;7560;51.364;12.384;2023-01-23T02:13:41;24.27;;;11.55;;
14933;SDS011;7560;51.364;12.384;2023-01-23T02:18:45;25.88;;;11.95;;
14933;SDS011;7560;51.364;12.384;2023-01-23T02:29:13;25.80;;;11.98;;
14933;SDS011;7560;51.364;12.384;2023-01-23T02:34:16;27.17;;;12.27;;
14933;SDS011;7560;51.364;12.384;2023-01-23T02:39:18;27.63;;;11.82;;
14933;SDS011;7560;51.364;12.384;2023-01-23T02:44:21;30.85;;;12.38;;
14933;SDS011;7560;51.364;12.384;2023-01-23T02:49:30;26.92;;;12.77;;
14933;SDS011;7560;51.364;12.384;2023-01-23T02:54:33;29.55;;;12.40;;
14933;SDS011;7560;51.364;12.384;2023-01-23T02:59:34;27.58;;;12.20;;
14933;SDS011;7560;51.364;12.384;2023-01-23T03:04:55;24.98;;;11.65;;
14933;SDS011;7560;51.364;12.384;2023-01-23T03:09:57;30.42;;;12.30;;
14933;SDS011;7560;51.364;12.384;2023-01-23T03:14:58;32.05;;;12.95;;
14933;SDS011;7560;51.364;12.384;2023-01-23T03:20:00;30.10;;;12.90;;
14933;SDS011;7560;51.364;12.384;2023-01-23T03:25:06;34.33;;;13.18;;
14933;SDS011;7560;51.364;12.384;2023-01-23T03:30:10;31.95;;;13.50;;
14933;SDS011;7560;51.364;12.384;2023-01-23T03:35:14;30.23;;;12.70;;
14933;SDS011;7560;51.364;12.384;2023-01-23T03:40:26;33.92;;;12.55;;
14933;SDS011;7560;51.364;12.384;2023-01-23T03:45:47;33.63;;;13.13;;
14933;SDS011;7560;51.364;12.384;2023-01-23T03:50:49;37.05;;;13.48;;
14933;SDS011;7560;51.364;12.384;2023-01-23T03:55:50;34.88;;;13.70;;
14933;SDS011;7560;51.364;12.384;2023-01-23T04:00:52;34.10;;;13.35;;
14933;SDS011;7560;51.364;12.384;2023-01-23T04:05:56;31.50;;;12.55;;
14933;SDS011;7560;51.364;12.384;2023-01-23T04:11:03;33.15;;;13.63;;
14933;SDS011;7560;51.364;12.384;2023-01-23T04:16:09;34.42;;;12.98;;
14933;SDS011;7560;51.364;12.384;2023-01-23T04:21:11;34.63;;;13.85;;
14933;SDS011;7560;51.364;12.384;2023-01-23T04:26:13;34.17;;;13.25;;
14933;SDS011;7560;51.364;12.384;2023-01-23T04:31:15;30.58;;;12.60;;
14933;SDS011;7560;51.364;12.384;2023-01-23T04:36:17;34.60;;;13.38;;
14933;SDS011;7560;51.364;12.384;2023-01-23T04:41:22;35.60;;;13.23;;
14933;SDS011;7560;51.364;12.384;2023-01-23T04:46:26;37.50;;;14.93;;
14933;SDS011;7560;51.364;12.384;2023-01-23T04:51:28;38.22;;;14.43;;
14933;SDS011;7560;51.364;12.384;2023-01-23T04:56:30;36.25;;;14.15;;
14933;SDS011;7560;51.364;12.384;2023-01-23T05:01:33;34.10;;;13.00;;
14933;SDS011;7560;51.364;12.384;2023-01-23T05:06:36;38.05;;;13.88;;
14933;SDS011;7560;51.364;12.384;2023-01-23T05:11:37;34.83;;;13.93;;
14933;SDS011;7560;51.364;12.384;2023-01-23T05:16:40;34.85;;;14.20;;
14933;SDS011;7560;51.364;12.384;2023-01-23T05:21:44;40.17;;;14.82;;
14933;SDS011;7560;51.364;12.384;2023-01-23T05:26:45;37.97;;;14.60;;
14933;SDS011;7560;51.364;12.384;2023-01-23T05:31:48;36.20;;;13.90;;
14933;SDS011;7560;51.364;12.384;2023-01-23T05:36:50;36.30;;;13.85;;
14933;SDS011;7560;51.364;12.384;2023-01-23T05:41:54;38.13;;;15.48;;
14933;SDS011;7560;51.364;12.384;2023-01-23T05:46:56;39.20;;;14.10;;
14933;SDS011;7560;51.364;12.384;2023-01-23T05:51:58;36.70;;;14.90;;
14933;SDS011;7560;51.364;12.384;2023-01-23T05:56:59;38.45;;;14.95;;
14933;SDS011;7560;51.364;12.384;2023-01-23T06:02:01;39.08;;;13.70;;
14933;SDS011;7560;51.364;12.384;2023-01-23T06:07:03;35.60;;;14.18;;
14933;SDS011;7560;51.364;12.384;2023-01-23T06:12:05;40.92;;;15.18;;
14933;SDS011;7560;51.364;12.384;2023-01-23T06:17:08;39.20;;;14.63;;
14933;SDS011;7560;51.364;12.384;2023-01-23T06:22:12;45.20;;;15.60;;
14933;SDS011;7560;51.364;12.384;2023-01-23T06:27:15;39.47;;;15.38;;
14933;SDS011;7560;51.364;12.384;2023-01-23T06:32:16;38.65;;;15.30;;
14933;SDS011;7560;51.364;12.384;2023-01-23T06:37:21;38.50;;;14.93;;
14933;SDS011;7560;51.364;12.384;2023-01-23T06:42:23;41.60;;;15.68;;
14933;SDS011;7560;51.364;12.384;2023-01-23T06:47:25;33.55;;;14.30;;
14933;SDS011;7560;51.364;12.384;2023-01-23T06:52:27;37.78;;;14.93;;
14933;SDS011;7560;51.364;12.384;2023-01-23T06:57:29;43.72;;;14.85;;
14933;SDS011;7560;51.364;12.384;2023-01-23T07:02:31;34.40;;;13.90;;
14933;SDS011;7560;51.364;12.384;2023-01-23T07:07:33;33.63;;;14.05;;
14933;SDS011;7560;51.364;12.384;2023-01-23T07:12:35;37.08;;;14.43;;
14933;SDS011;7560;51.364;12.384;2023-01-23T07:17:37;36.25;;;13.88;;
14933;SDS011;7560;51.364;12.384;2023-01-23T07:22:39;34.67;;;14.07;;
14933;SDS011;7560;51.364;12.384;2023-01-23T07:27:41;35.28;;;14.35;;
14933;SDS011;7560;51.364;12.384;2023-01-23T07:32:43;34.03;;;13.30;;
14933;SDS011;7560;51.364;12.384;2023-01-23T07:37:46;37.80;;;15.10;;
14933;SDS011;7560;51.364;12.384;2023-01-23T07:42:47;36.67;;;13.80;;
14933;SDS011;7560;51.364;12.384;2023-01-23T07:47:49;34.78;;;13.45;;
14933;SDS011;7560;51.364;12.384;2023-01-23T07:52:51;29.92;;;13.57;;
14933;SDS011;7560;51.364;12.384;2023-01-23T07:57:56;34.80;;;13.80;;
14933;SDS011;7560;51.364;12.384;2023-01-23T08:02:58;34.85;;;14.27;;
14933;SDS011;7560;51.364;12.384;2023-01-23T08:08:00;34.10;;;15.43;;
14933;SDS011;7560;51.364;12.384;2023-01-23T08:13:13;33.03;;;14.65;;
14933;SDS011;7560;51.364;12.384;2023-01-23T08:18:15;32.65;;;13.63;;
14933;SDS011;7560;51.364;12.384;2023-01-23T08:23:16;40.67;;;15.55;;
14933;SDS011;7560;51.364;12.384;2023-01-23T08:28:18;34.03;;;14.80;;
14933;SDS011;7560;51.364;12.384;2023-01-23T08:33:20;32.75;;;14.95;;
14933;SDS011;7560;51.364;12.384;2023-01-23T08:38:23;36.58;;;14.80;;
14933;SDS011;7560;51.364;12.384;2023-01-23T08:43:25;38.28;;;16.30;;
14933;SDS011;7560;51.364;12.384;2023-01-23T08:48:27;37.05;;;16.92;;
14933;SDS011;7560;51.364;12.384;2023-01-23T08:53:31;33.45;;;15.73;;
14933;SDS011;7560;51.364;12.384;2023-01-23T08:58:34;30.00;;;13.68;;
14933;SDS011;7560;51.364;12.384;2023-01-23T09:03:35;35.92;;;14.57;;
14933;SDS011;7560;51.364;12.384;2023-01-23T09:08:37;36.30;;;15.02;;
14933;SDS011;7560;51.364;12.384;2023-01-23T09:13:39;34.58;;;14.15;;
14933;SDS011;7560;51.364;12.384;2023-01-23T09:18:42;33.60;;;14.68;;
14933;SDS011;7560;51.364;12.384;2023-01-23T09:23:44;39.72;;;15.43;;
14933;SDS011;7560;51.364;12.384;2023-01-23T09:28:46;41.97;;;18.17;;
14933;SDS011;7560;51.364;12.384;2023-01-23T09:33:47;45.08;;;18.67;;
14933;SDS011;7560;51.364;12.384;2023-01-23T09:38:49;39.50;;;16.33;;
14933;SDS011;7560;51.364;12.384;2023-01-23T09:43:56;32.95;;;13.65;;
14933;SDS011;7560;51.364;12.384;2023-01-23T09:49:23;37.60;;;15.85;;
14933;SDS011;7560;51.364;12.384;2023-01-23T09:54:53;38.75;;;15.55;;
14933;SDS011;7560;51.364;12.384;2023-01-23T10:00:03;38.33;;;15.35;;
14933;SDS011;7560;51.364;12.384;2023-01-23T10:05:16;35.92;;;14.88;;
14933;SDS011;7560;51.364;12.384;2023-01-23T10:26:02;46.85;;;21.00;;
14933;SDS011;7560;51.364;12.384;2023-01-23T10:41:47;31.73;;;14.77;;
14933;SDS011;7560;51.364;12.384;2023-01-23T10:47:01;35.33;;;13.60;;
14933;SDS011;7560;51.364;12.384;2023-01-23T10:57:42;28.75;;;12.88;;
14933;SDS011;7560;51.364;12.384;2023-01-23T11:02:49;34.20;;;14.00;;
14933;SDS011;7560;51.364;12.384;2023-01-23T11:07:54;35.65;;;14.55;;
14933;SDS011;7560;51.364;12.384;2023-01-23T11:12:56;33.55;;;15.05;;
14933;SDS011;7560;51.364;12.384;2023-01-23T11:18:00;31.23;;;14.18;;
14933;SDS011;7560;51.364;12.384;2023-01-23T11:23:13;31.88;;;14.23;;
14933;SDS011;7560;51.364;12.384;2023-01-23T11:28:27;38.00;;;14.82;;
14933;SDS011;7560;51.364;12.384;2023-01-23T11:33:41;38.55;;;15.80;;
14933;SDS011;7560;51.364;12.384;2023-01-23T11:39:10;39.15;;;16.05;;
14933;SDS011;7560;51.364;12.384;2023-01-23T11:44:19;39.67;;;17.05;;
14933;SDS011;7560;51.364;12.384;2023-01-23T12:00:16;33.30;;;15.88;;
14933;SDS011;7560;51.364;12.384;2023-01-23T12:05:40;34.22;;;15.52;;
14933;SDS011;7560;51.364;12.384;2023-01-23T12:32:38;35.80;;;15.00;;
14933;SDS011;7560;51.364;12.384;2023-01-23T12:43:01;30.83;;;14.23;;
14933;SDS011;7560;51.364;12.384;2023-01-23T12:48:24;31.35;;;14.25;;
14933;SDS011;7560;51.364;12.384;2023-01-23T12:53:32;32.25;;;15.07;;
14933;SDS011;7560;51.364;12.384;2023-01-23T12:58:42;35.97;;;15.48;;
14933;SDS011;7560;51.364;12.384;2023-01-23T13:15:33;30.35;;;14.52;;
14933;SDS011;7560;51.364;12.384;2023-01-23T13:21:00;32.95;;;15.25;;
14933;SDS011;7560;51.364;12.384;2023-01-23T13:26:23;30.58;;;14.40;;
14933;SDS011;7560;51.364;12.384;2023-01-23T13:36:48;33.20;;;15.98;;
14933;SDS011;7560;51.364;12.384;2023-01-23T13:47:23;34.60;;;16.13;;
14933;SDS011;7560;51.364;12.384;2023-01-23T13:53:16;38.22;;;17.33;;
14933;SDS011;7560;51.364;12.384;2023-01-23T13:58:57;42.35;;;16.13;;
14933;SDS011;7560;51.364;12.384;2023-01-23T14:04:18;33.53;;;16.25;;
14933;SDS011;7560;51.364;12.384;2023-01-23T14:09:54;37.03;;;15.63;;
14933;SDS011;7560;51.364;12.384;2023-01-23T14:20:52;42.20;;;17.25;;
14933;SDS011;7560;51.364;12.384;2023-01-23T14:25:55;40.00;;;17.08;;
14933;SDS011;7560;51.364;12.384;2023-01-23T14:31:02;40.92;;;17.55;;
14933;SDS011;7560;51.364;12.384;2023-01-23T14:36:10;38.28;;;16.95;;
14933;SDS011;7560;51.364;12.384;2023-01-23T14:41:17;39.10;;;17.17;;
14933;SDS011;7560;51.364;12.384;2023-01-23T14:46:32;41.47;;;16.73;;
14933;SDS011;7560;51.364;12.384;2023-01-23T14:51:38;44.72;;;17.42;;
14933;SDS011;7560;51.364;12.384;2023-01-23T14:56:40;36.72;;;15.77;;
14933;SDS011;7560;51.364;12.384;2023-01-23T15:01:51;43.60;;;17.80;;
14933;SDS011;7560;51.364;12.384;2023-01-23T15:06:58;44.13;;;18.23;;
14933;SDS011;7560;51.364;12.384;2023-01-23T15:12:04;43.13;;;19.10;;
14933;SDS011;7560;51.364;12.384;2023-01-23T15:17:18;42.28;;;17.23;;
14933;SDS011;7560;51.364;12.384;2023-01-23T15:22:26;37.83;;;17.13;;
14933;SDS011;7560;51.364;12.384;2023-01-23T15:32:37;42.63;;;17.80;;
14933;SDS011;7560;51.364;12.384;2023-01-23T15:37:39;38.78;;;16.73;;
14933;SDS011;7560;51.364;12.384;2023-01-23T15:43:09;42.83;;;17.85;;
14933;SDS011;7560;51.364;12.384;2023-01-23T15:48:18;40.55;;;17.05;;
14933;SDS011;7560;51.364;12.384;2023-01-23T15:53:20;44.38;;;17.40;;
14933;SDS011;7560;51.364;12.384;2023-01-23T15:58:22;40.28;;;17.52;;
14933;SDS011;7560;51.364;12.384;2023-01-23T16:03:25;44.67;;;18.05;;
14933;SDS011;7560;51.364;12.384;2023-01-23T16:08:27;38.88;;;17.00;;
14933;SDS011;7560;51.364;12.384;2023-01-23T16:13:29;40.33;;;17.27;;
14933;SDS011;7560;51.364;12.384;2023-01-23T16:18:30;41.35;;;18.02;;
14933;SDS011;7560;51.364;12.384;2023-01-23T16:23:32;39.28;;;17.42;;
14933;SDS011;7560;51.364;12.384;2023-01-23T16:28:47;43.35;;;17.00;;
14933;SDS011;7560;51.364;12.384;2023-01-23T16:33:49;44.97;;;18.55;;
14933;SDS011;7560;51.364;12.384;2023-01-23T16:38:51;45.45;;;18.35;;
14933;SDS011;7560;51.364;12.384;2023-01-23T16:43:56;41.50;;;16.38;;
14933;SDS011;7560;51.364;12.384;2023-01-23T16:48:58;41.80;;;16.98;;
14933;SDS011;7560;51.364;12.384;2023-01-23T16:54:00;40.45;;;16.23;;
14933;SDS011;7560;51.364;12.384;2023-01-23T16:59:19;34.88;;;15.23;;
14933;SDS011;7560;51.364;12.384;2023-01-23T17:04:29;40.80;;;16.10;;
14933;SDS011;7560;51.364;12.384;2023-01-23T17:09:33;44.70;;;17.55;;
14933;SDS011;7560;51.364;12.384;2023-01-23T17:14:35;36.90;;;15.73;;
14933;SDS011;7560;51.364;12.384;2023-01-23T17:19:41;38.63;;;16.52;;
14933;SDS011;7560;51.364;12.384;2023-01-23T17:24:44;40.75;;;16.35;;
14933;SDS011;7560;51.364;12.384;2023-01-23T17:29:46;44.67;;;16.85;;
14933;SDS011;7560;51.364;12.384;2023-01-23T17:34:49;40.22;;;16.73;;
14933;SDS011;7560;51.364;12.384;2023-01-23T17:39:51;38.38;;;16.02;;
14933;SDS011;7560;51.364;12.384;2023-01-23T17:44:54;38.25;;;16.67;;
14933;SDS011;7560;51.364;12.384;2023-01-23T17:49:56;43.28;;;16.63;;
14933;SDS011;7560;51.364;12.384;2023-01-23T17:54:58;41.42;;;17.08;;
14933;SDS011;7560;51.364;12.384;2023-01-23T18:00:00;39.63;;;16.55;;
14933;SDS011;7560;51.364;12.384;2023-01-23T18:05:03;36.33;;;16.20;;
14933;SDS011;7560;51.364;12.384;2023-01-23T18:10:08;36.78;;;14.82;;
14933;SDS011;7560;51.364;12.384;2023-01-23T18:15:18;39.13;;;16.40;;
14933;SDS011;7560;51.364;12.384;2023-01-23T18:20:30;38.88;;;16.60;;
14933;SDS011;7560;51.364;12.384;2023-01-23T18:25:33;40.88;;;15.75;;
14933;SDS011;7560;51.364;12.384;2023-01-23T18:36:03;46.85;;;17.13;;
14933;SDS011;7560;51.364;12.384;2023-01-23T18:41:21;38.92;;;17.40;;
14933;SDS011;7560;51.364;12.384;2023-01-23T18:46:23;38.08;;;14.52;;
14933;SDS011;7560;51.364;12.384;2023-01-23T19:07:39;39.22;;;18.58;;
14933;SDS011;7560;51.364;12.384;2023-01-23T19:18:13;42.22;;;18.13;;
14933;SDS011;7560;51.364;12.384;2023-01-23T19:28:56;39.05;;;17.35;;
14933;SDS011;7560;51.364;12.384;2023-01-23T19:34:02;39.85;;;16.58;;
14933;SDS011;7560;51.364;12.384;2023-01-23T19:39:08;38.22;;;17.52;;
14933;SDS011;7560;51.364;12.384;2023-01-23T19:44:11;35.17;;;16.63;;
14933;SDS011;7560;51.364;12.384;2023-01-23T19:49:17;31.73;;;15.73;;
14933;SDS011;7560;51.364;12.384;2023-01-23T19:54:19;39.03;;;16.40;;
14933;SDS011;7560;51.364;12.384;2023-01-23T19:59:24;41.13;;;18.50;;
14933;SDS011;7560;51.364;12.384;2023-01-23T20:04:27;36.90;;;16.02;;
14933;SDS011;7560;51.364;12.384;2023-01-23T20:09:29;36.33;;;17.13;;
14933;SDS011;7560;51.364;12.384;2023-01-23T20:14:31;40.42;;;18.02;;
14933;SDS011;7560;51.364;12.384;2023-01-23T20:19:32;38.30;;;16.83;;
14933;SDS011;7560;51.364;12.384;2023-01-23T20:24:34;34.60;;;16.67;;
14933;SDS011;7560;51.364;12.384;2023-01-23T20:29:37;39.00;;;16.70;;
14933;SDS011;7560;51.364;12.384;2023-01-23T20:34:39;35.70;;;16.85;;
14933;SDS011;7560;51.364;12.384;2023-01-23T20:39:41;38.72;;;18.13;;
14933;SDS011;7560;51.364;12.384;2023-01-23T20:44:43;36.28;;;17.00;;
14933;SDS011;7560;51.364;12.384;2023-01-23T20:49:45;34.85;;;17.13;;
14933;SDS011;7560;51.364;12.384;2023-01-23T20:54:46;36.25;;;17.08;;
14933;SDS011;7560;51.364;12.384;2023-01-23T20:59:49;38.75;;;19.15;;
14933;SDS011;7560;51.364;12.384;2023-01-23T21:05:00;41.78;;;19.88;;
14933;SDS011;7560;51.364;12.384;2023-01-23T21:10:02;39.35;;;19.58;;
14933;SDS011;7560;51.364;12.384;2023-01-23T21:15:04;37.83;;;18.55;;
14933;SDS011;7560;51.364;12.384;2023-01-23T21:20:06;37.95;;;18.27;;
14933;SDS011;7560;51.364;12.384;2023-01-23T21:25:09;36.00;;;18.10;;
14933;SDS011;7560;51.364;12.384;2023-01-23T21:30:12;44.90;;;21.88;;
14933;SDS011;7560;51.364;12.384;2023-01-23T21:35:14;39.38;;;17.67;;
14933;SDS011;7560;51.364;12.384;2023-01-23T21:40:16;39.50;;;17.13;;
14933;SDS011;7560;51.364;12.384;2023-01-23T21:45:17;32.53;;;16.10;;
14933;SDS011;7560;51.364;12.384;2023-01-23T21:50:21;41.80;;;18.58;;
14933;SDS011;7560;51.364;12.384;2023-01-23T21:55:23;42.35;;;22.25;;
14933;SDS011;7560;51.364;12.384;2023-01-23T22:00:24;36.47;;;18.35;;
14933;SDS011;7560;51.364;12.384;2023-01-23T22:05:47;33.08;;;16.10;;
14933;SDS011;7560;51.364;12.384;2023-01-23T22:10:49;38.72;;;17.52;;
14933;SDS011;7560;51.364;12.384;2023-01-23T22:15:51;35.58;;;16.48;;
14933;SDS011;7560;51.364;12.384;2023-01-23T22:20:54;33.78;;;15.95;;
14933;SDS011;7560;51.364;12.384;2023-01-23T22:26:02;34.33;;;16.10;;
14933;SDS011;7560;51.364;12.384;2023-01-23T22:31:10;35.47;;;16.15;;
14933;SDS011;7560;51.364;12.384;2023-01-23T22:36:15;38.17;;;16.38;;
14933;SDS011;7560;51.364;12.384;2023-01-23T22:41:20;39.15;;;16.52;;
14933;SDS011;7560;51.364;12.384;2023-01-23T22:46:23;32.97;;;15.20;;
14933;SDS011;7560;51.364;12.384;2023-01-23T22:51:25;38.45;;;17.08;;
14933;SDS011;7560;51.364;12.384;2023-01-23T22:56:28;34.05;;;15.90;;
14933;SDS011;7560;51.364;12.384;2023-01-23T23:01:31;37.95;;;16.50;;
14933;SDS011;7560;51.364;12.384;2023-01-23T23:06:33;36.05;;;16.45;;
14933;SDS011;7560;51.364;12.384;2023-01-23T23:11:35;34.78;;;15.07;;
14933;SDS011;7560;51.364;12.384;2023-01-23T23:16:38;33.83;;;15.55;;
14933;SDS011;7560;51.364;12.384;2023-01-23T23:21:43;31.58;;;15.02;;
14933;SDS011;7560;51.364;12.384;2023-01-23T23:26:45;33.55;;;15.43;;
14933;SDS011;7560;51.364;12.384;2023-01-23T23:31:50;34.83;;;15.75;;
14933;SDS011;7560;51.364;12.384;2023-01-23T23:36:53;30.63;;;15.43;;
14933;SDS011;7560;51.364;12.384;2023-01-23T23:41:55;34.15;;;15.68;;
14933;SDS011;7560;51.364;12.384;2023-01-23T23:46:58;32.38;;;15.38;;
14933;SDS011;7560;51.364;12.384;2023-01-23T23:52:00;29.65;;;15.38;;
14933;SDS011;7560;51.364;12.384;2023-01-23T23:57:02;31.80;;;14.90;;
